sensor_id;sensor_type;location;lat;lon;timestamp;pressure;altitude;pressure_sealevel;temperature;humidity
9439;BME280;5176;42.622;25.386;2024-03-08T00:00:49;97333.22;;;6.55;100.00
9439;BME280;5176;42.622;25.386;2024-03-08T00:03:17;97327.00;;;6.58;100.00
9439;BME280;5176;42.622;25.386;2024-03-08T00:05:44;97330.38;;;6.60;100.00
9439;BME280;5176;42.622;25.386;2024-03-08T00:08:12;97327.78;;;6.60;100.00
9439;BME280;5176;42.622;25.386;2024-03-08T00:10:39;97330.38;;;6.60;100.00
9439;BME280;5176;42.622;25.386;2024-03-08T00:13:06;97328.56;;;6.62;100.00
9439;BME280;5176;42.622;25.386;2024-03-08T00:15:34;97327.66;;;6.63;100.00
9439;BME280;5176;42.622;25.386;2024-03-08T00:18:03;97324.03;;;6.66;100.00
9439;BME280;5176;42.622;25.386;2024-03-08T00:20:30;97321.22;;;6.70;100.00
9439;BME280;5176;42.622;25.386;2024-03-08T00:22:57;97313.25;;;6.73;100.00
9439;BME280;5176;42.622;25.386;2024-03-08T00:25:25;97316.56;;;6.77;100.00
9439;BME280;5176;42.622;25.386;2024-03-08T00:27:53;97314.19;;;6.72;100.00
9439;BME280;5176;42.622;25.386;2024-03-08T00:30:21;97306.25;;;6.75;100.00
9439;BME280;5176;42.622;25.386;2024-03-08T00:32:51;97303.56;;;6.77;100.00
9439;BME280;5176;42.622;25.386;2024-03-08T00:35:20;97300.03;;;6.78;100.00
9439;BME280;5176;42.622;25.386;2024-03-08T00:37:48;97306.25;;;6.75;100.00
9439;BME280;5176;42.622;25.386;2024-03-08T00:40:14;97311.47;;;6.57;100.00
9439;BME280;5176;42.622;25.386;2024-03-08T00:42:42;97309.53;;;6.41;100.00
9439;BME280;5176;42.622;25.386;2024-03-08T00:45:10;97304.56;;;6.37;100.00
9439;BME280;5176;42.622;25.386;2024-03-08T00:47:38;97305.41;;;6.37;100.00
9439;BME280;5176;42.622;25.386;2024-03-08T00:50:06;97303.50;;;6.41;100.00
9439;BME280;5176;42.622;25.386;2024-03-08T00:52:35;97310.38;;;6.42;100.00
9439;BME280;5176;42.622;25.386;2024-03-08T00:55:03;97313.06;;;6.40;100.00
9439;BME280;5176;42.622;25.386;2024-03-08T00:57:31;97272.47;;;6.17;100.00
9439;BME280;5176;42.622;25.386;2024-03-08T00:59:58;97307.28;;;6.52;100.00
9439;BME280;5176;42.622;25.386;2024-03-08T01:02:26;97311.38;;;6.58;100.00
9439;BME280;5176;42.622;25.386;2024-03-08T01:04:53;97303.50;;;6.60;100.00
9439;BME280;5176;42.622;25.386;2024-03-08T01:07:20;97307.38;;;6.51;100.00
9439;BME280;5176;42.622;25.386;2024-03-08T01:09:49;97302.28;;;6.48;100.00
9439;BME280;5176;42.622;25.386;2024-03-08T01:12:16;97297.16;;;6.46;100.00
9439;BME280;5176;42.622;25.386;2024-03-08T01:14:43;97298.25;;;6.42;100.00
9439;BME280;5176;42.622;25.386;2024-03-08T01:17:11;97307.84;;;6.40;100.00
9439;BME280;5176;42.622;25.386;2024-03-08T01:19:38;97309.06;;;6.33;100.00
9439;BME280;5176;42.622;25.386;2024-03-08T01:22:06;97305.75;;;6.30;100.00
9439;BME280;5176;42.622;25.386;2024-03-08T01:24:33;97313.00;;;6.23;100.00
9439;BME280;5176;42.622;25.386;2024-03-08T01:27:02;97301.38;;;6.11;100.00
9439;BME280;5176;42.622;25.386;2024-03-08T01:29:30;97309.47;;;6.24;100.00
9439;BME280;5176;42.622;25.386;2024-03-08T01:31:58;97311.38;;;6.20;100.00
9439;BME280;5176;42.622;25.386;2024-03-08T01:34:27;97313.22;;;6.18;100.00
9439;BME280;5176;42.622;25.386;2024-03-08T01:36:55;97307.72;;;6.24;100.00
9439;BME280;5176;42.622;25.386;2024-03-08T01:39:23;97315.47;;;6.26;100.00
9439;BME280;5176;42.622;25.386;2024-03-08T01:41:50;97310.31;;;6.24;100.00
9439;BME280;5176;42.622;25.386;2024-03-08T01:44:19;97313.69;;;6.26;100.00
9439;BME280;5176;42.622;25.386;2024-03-08T01:46:46;97318.25;;;6.21;100.00
9439;BME280;5176;42.622;25.386;2024-03-08T01:49:14;97307.09;;;6.19;100.00
9439;BME280;5176;42.622;25.386;2024-03-08T01:51:44;97316.53;;;6.22;100.00
9439;BME280;5176;42.622;25.386;2024-03-08T01:54:11;97311.53;;;6.17;100.00
9439;BME280;5176;42.622;25.386;2024-03-08T01:56:40;97314.06;;;6.19;100.00
9439;BME280;5176;42.622;25.386;2024-03-08T01:59:07;97313.34;;;6.15;100.00
9439;BME280;5176;42.622;25.386;2024-03-08T02:01:37;97312.38;;;6.18;100.00
9439;BME280;5176;42.622;25.386;2024-03-08T02:04:04;97317.66;;;6.16;100.00
9439;BME280;5176;42.622;25.386;2024-03-08T02:06:33;97311.59;;;6.16;100.00
9439;BME280;5176;42.622;25.386;2024-03-08T02:09:00;97309.31;;;6.08;100.00
9439;BME280;5176;42.622;25.386;2024-03-08T02:11:31;97309.13;;;6.13;100.00
9439;BME280;5176;42.622;25.386;2024-03-08T02:13:59;97303.34;;;6.06;100.00
9439;BME280;5176;42.622;25.386;2024-03-08T02:16:26;97312.06;;;6.05;100.00
9439;BME280;5176;42.622;25.386;2024-03-08T02:18:55;97308.75;;;6.01;100.00
9439;BME280;5176;42.622;25.386;2024-03-08T02:21:25;97304.78;;;5.93;100.00
9439;BME280;5176;42.622;25.386;2024-03-08T02:23:53;97309.72;;;5.99;100.00
9439;BME280;5176;42.622;25.386;2024-03-08T02:26:20;97308.47;;;5.87;100.00
9439;BME280;5176;42.622;25.386;2024-03-08T02:28:48;97312.75;;;5.88;100.00
9439;BME280;5176;42.622;25.386;2024-03-08T02:31:16;97301.78;;;5.82;100.00
9439;BME280;5176;42.622;25.386;2024-03-08T02:33:43;97313.69;;;5.87;100.00
9439;BME280;5176;42.622;25.386;2024-03-08T02:36:13;97308.34;;;5.90;100.00
9439;BME280;5176;42.622;25.386;2024-03-08T02:38:43;97306.09;;;5.83;100.00
9439;BME280;5176;42.622;25.386;2024-03-08T02:41:10;97297.63;;;5.78;100.00
9439;BME280;5176;42.622;25.386;2024-03-08T02:43:38;97305.72;;;5.71;100.00
9439;BME280;5176;42.622;25.386;2024-03-08T02:46:05;97308.13;;;5.76;100.00
9439;BME280;5176;42.622;25.386;2024-03-08T02:48:32;97310.66;;;5.78;100.00
9439;BME280;5176;42.622;25.386;2024-03-08T02:51:00;97312.19;;;5.82;100.00
9439;BME280;5176;42.622;25.386;2024-03-08T02:53:27;97315.94;;;5.76;100.00
9439;BME280;5176;42.622;25.386;2024-03-08T02:55:56;97307.84;;;5.82;100.00
9439;BME280;5176;42.622;25.386;2024-03-08T02:58:23;97317.94;;;5.90;100.00
9439;BME280;5176;42.622;25.386;2024-03-08T03:00:51;97313.31;;;5.76;100.00
9439;BME280;5176;42.622;25.386;2024-03-08T03:03:18;97309.91;;;5.74;100.00
9439;BME280;5176;42.622;25.386;2024-03-08T03:05:45;97309.06;;;5.73;100.00
9439;BME280;5176;42.622;25.386;2024-03-08T03:08:13;97306.97;;;5.63;100.00
9439;BME280;5176;42.622;25.386;2024-03-08T03:10:41;97302.97;;;5.74;100.00
9439;BME280;5176;42.622;25.386;2024-03-08T03:13:10;97298.47;;;5.78;100.00
9439;BME280;5176;42.622;25.386;2024-03-08T03:15:38;97298.56;;;5.77;100.00
9439;BME280;5176;42.622;25.386;2024-03-08T03:18:07;97302.06;;;5.76;100.00
9439;BME280;5176;42.622;25.386;2024-03-08T03:20:35;97296.88;;;5.76;100.00
9439;BME280;5176;42.622;25.386;2024-03-08T03:23:06;97301.28;;;5.73;100.00
9439;BME280;5176;42.622;25.386;2024-03-08T03:25:34;97298.81;;;5.70;100.00
9439;BME280;5176;42.622;25.386;2024-03-08T03:28:01;97303.03;;;5.73;100.00
9439;BME280;5176;42.622;25.386;2024-03-08T03:30:31;97293.81;;;5.66;100.00
9439;BME280;5176;42.622;25.386;2024-03-08T03:33:00;97312.19;;;5.61;100.00
9439;BME280;5176;42.622;25.386;2024-03-08T03:35:28;97303.81;;;5.55;100.00
9439;BME280;5176;42.622;25.386;2024-03-08T03:37:56;97313.63;;;5.48;100.00
9439;BME280;5176;42.622;25.386;2024-03-08T03:40:32;97305.97;;;5.45;100.00
9439;BME280;5176;42.622;25.386;2024-03-08T03:43:00;97310.19;;;5.47;100.00
9439;BME280;5176;42.622;25.386;2024-03-08T03:45:28;97316.78;;;5.56;100.00
9439;BME280;5176;42.622;25.386;2024-03-08T03:48:01;97305.06;;;5.46;100.00
9439;BME280;5176;42.622;25.386;2024-03-08T03:50:29;97324.63;;;5.55;100.00
9439;BME280;5176;42.622;25.386;2024-03-08T03:52:56;97323.53;;;5.60;100.00
9439;BME280;5176;42.622;25.386;2024-03-08T03:55:24;97316.44;;;5.64;100.00
9439;BME280;5176;42.622;25.386;2024-03-08T03:57:51;97328.03;;;5.57;100.00
9439;BME280;5176;42.622;25.386;2024-03-08T04:00:19;97321.91;;;5.58;100.00
9439;BME280;5176;42.622;25.386;2024-03-08T04:02:46;97322.03;;;5.55;100.00
9439;BME280;5176;42.622;25.386;2024-03-08T04:05:16;97321.97;;;5.56;100.00
9439;BME280;5176;42.622;25.386;2024-03-08T04:07:43;97328.97;;;5.54;100.00
9439;BME280;5176;42.622;25.386;2024-03-08T04:10:11;97330.81;;;5.52;100.00
9439;BME280;5176;42.622;25.386;2024-03-08T04:12:39;97328.13;;;5.54;100.00
9439;BME280;5176;42.622;25.386;2024-03-08T04:15:07;97337.31;;;5.62;100.00
9439;BME280;5176;42.622;25.386;2024-03-08T04:17:36;97329.78;;;5.56;100.00
9439;BME280;5176;42.622;25.386;2024-03-08T04:20:05;97332.06;;;5.64;100.00
9439;BME280;5176;42.622;25.386;2024-03-08T04:22:37;97340.09;;;5.58;100.00
9439;BME280;5176;42.622;25.386;2024-03-08T04:25:06;97340.19;;;5.56;100.00
9439;BME280;5176;42.622;25.386;2024-03-08T04:27:35;97340.44;;;5.70;100.00
9439;BME280;5176;42.622;25.386;2024-03-08T04:30:04;97342.97;;;5.72;100.00
9439;BME280;5176;42.622;25.386;2024-03-08T04:32:33;97339.34;;;5.76;100.00
9439;BME280;5176;42.622;25.386;2024-03-08T04:35:00;97319.28;;;5.78;100.00
9439;BME280;5176;42.622;25.386;2024-03-08T04:37:29;97338.09;;;5.85;100.00
9439;BME280;5176;42.622;25.386;2024-03-08T04:39:58;97332.47;;;5.73;100.00
9439;BME280;5176;42.622;25.386;2024-03-08T04:42:26;97338.94;;;5.85;100.00
9439;BME280;5176;42.622;25.386;2024-03-08T04:44:54;97333.53;;;5.90;100.00
9439;BME280;5176;42.622;25.386;2024-03-08T04:47:22;97338.34;;;5.99;100.00
9439;BME280;5176;42.622;25.386;2024-03-08T04:49:49;97338.94;;;6.06;100.00
9439;BME280;5176;42.622;25.386;2024-03-08T04:52:17;97343.16;;;6.08;100.00
9439;BME280;5176;42.622;25.386;2024-03-08T04:54:44;97333.53;;;6.10;100.00
9439;BME280;5176;42.622;25.386;2024-03-08T04:57:13;97341.91;;;6.17;100.00
9439;BME280;5176;42.622;25.386;2024-03-08T04:59:43;97347.81;;;6.20;100.00
9439;BME280;5176;42.622;25.386;2024-03-08T05:02:10;97341.06;;;6.16;100.00
9439;BME280;5176;42.622;25.386;2024-03-08T05:04:38;97353.28;;;6.14;100.00
9439;BME280;5176;42.622;25.386;2024-03-08T05:07:06;97352.53;;;6.12;100.00
9439;BME280;5176;42.622;25.386;2024-03-08T05:09:33;97355.38;;;6.06;100.00
9439;BME280;5176;42.622;25.386;2024-03-08T05:12:02;97355.81;;;5.97;100.00
9439;BME280;5176;42.622;25.386;2024-03-08T05:14:30;97354.63;;;6.04;100.00
9439;BME280;5176;42.622;25.386;2024-03-08T05:16:58;97352.22;;;5.99;100.00
9439;BME280;5176;42.622;25.386;2024-03-08T05:19:26;97357.16;;;6.06;100.00
9439;BME280;5176;42.622;25.386;2024-03-08T05:21:55;97363.69;;;6.14;100.00
9439;BME280;5176;42.622;25.386;2024-03-08T05:24:23;97366.28;;;6.14;100.00
9439;BME280;5176;42.622;25.386;2024-03-08T05:26:50;97373.91;;;6.19;100.00
9439;BME280;5176;42.622;25.386;2024-03-08T05:29:18;97374.63;;;6.22;100.00
9439;BME280;5176;42.622;25.386;2024-03-08T05:31:48;97372.91;;;6.21;100.00
9439;BME280;5176;42.622;25.386;2024-03-08T05:34:16;97360.31;;;6.12;100.00
9439;BME280;5176;42.622;25.386;2024-03-08T05:36:45;97375.59;;;6.20;100.00
9439;BME280;5176;42.622;25.386;2024-03-08T05:39:13;97367.03;;;6.18;100.00
9439;BME280;5176;42.622;25.386;2024-03-08T05:41:40;97373.06;;;6.18;100.00
9439;BME280;5176;42.622;25.386;2024-03-08T05:44:08;97373.16;;;6.17;100.00
9439;BME280;5176;42.622;25.386;2024-03-08T05:46:37;97379.88;;;6.21;100.00
9439;BME280;5176;42.622;25.386;2024-03-08T05:49:06;97379.69;;;6.25;100.00
9439;BME280;5176;42.622;25.386;2024-03-08T05:51:37;97380.41;;;6.29;100.00
9439;BME280;5176;42.622;25.386;2024-03-08T05:54:06;97386.25;;;6.34;100.00
9439;BME280;5176;42.622;25.386;2024-03-08T05:56:36;97381.19;;;6.31;100.00
9439;BME280;5176;42.622;25.386;2024-03-08T05:59:04;97374.34;;;6.28;100.00
9439;BME280;5176;42.622;25.386;2024-03-08T06:01:31;97380.13;;;6.35;100.00
9439;BME280;5176;42.622;25.386;2024-03-08T06:04:02;97372.66;;;6.27;100.00
9439;BME280;5176;42.622;25.386;2024-03-08T06:06:32;97385.47;;;6.32;100.00
9439;BME280;5176;42.622;25.386;2024-03-08T06:08:59;97385.28;;;6.37;100.00
9439;BME280;5176;42.622;25.386;2024-03-08T06:11:34;97393.22;;;6.34;100.00
9439;BME280;5176;42.622;25.386;2024-03-08T06:14:01;97390.75;;;6.31;100.00
9439;BME280;5176;42.622;25.386;2024-03-08T06:16:29;97396.72;;;6.33;100.00
9439;BME280;5176;42.622;25.386;2024-03-08T06:18:56;97377.63;;;6.13;100.00
9439;BME280;5176;42.622;25.386;2024-03-08T06:21:24;97387.69;;;6.21;100.00
9439;BME280;5176;42.622;25.386;2024-03-08T06:23:53;97406.75;;;6.21;100.00
9439;BME280;5176;42.622;25.386;2024-03-08T06:26:23;97402.03;;;6.11;100.00
9439;BME280;5176;42.622;25.386;2024-03-08T06:28:54;97394.25;;;6.11;100.00
9439;BME280;5176;42.622;25.386;2024-03-08T06:31:21;97409.38;;;6.21;100.00
9439;BME280;5176;42.622;25.386;2024-03-08T06:33:49;97396.34;;;6.21;100.00
9439;BME280;5176;42.622;25.386;2024-03-08T06:36:16;97412.28;;;6.34;100.00
9439;BME280;5176;42.622;25.386;2024-03-08T06:38:45;97372.06;;;6.21;100.00
9439;BME280;5176;42.622;25.386;2024-03-08T06:41:14;97414.16;;;6.51;100.00
9439;BME280;5176;42.622;25.386;2024-03-08T06:43:42;97420.97;;;6.53;100.00
9439;BME280;5176;42.622;25.386;2024-03-08T06:46:09;97411.41;;;6.54;100.00
9439;BME280;5176;42.622;25.386;2024-03-08T06:48:38;97417.41;;;6.56;100.00
9439;BME280;5176;42.622;25.386;2024-03-08T06:51:06;97417.16;;;6.61;100.00
9439;BME280;5176;42.622;25.386;2024-03-08T06:53:33;97412.13;;;6.58;100.00
9439;BME280;5176;42.622;25.386;2024-03-08T06:56:01;97415.63;;;6.57;100.00
9439;BME280;5176;42.622;25.386;2024-03-08T06:58:30;97425.22;;;6.56;100.00
9439;BME280;5176;42.622;25.386;2024-03-08T07:00:58;97430.84;;;6.66;100.00
9439;BME280;5176;42.622;25.386;2024-03-08T07:03:26;97435.06;;;6.68;100.00
9439;BME280;5176;42.622;25.386;2024-03-08T07:05:55;97432.34;;;6.71;100.00
9439;BME280;5176;42.622;25.386;2024-03-08T07:08:23;97435.63;;;6.75;100.00
9439;BME280;5176;42.622;25.386;2024-03-08T07:10:53;97439.38;;;6.69;100.00
9439;BME280;5176;42.622;25.386;2024-03-08T07:13:20;97442.00;;;6.69;100.00
9439;BME280;5176;42.622;25.386;2024-03-08T07:15:49;97444.59;;;6.69;100.00
9439;BME280;5176;42.622;25.386;2024-03-08T07:18:18;97446.56;;;6.64;100.00
9439;BME280;5176;42.622;25.386;2024-03-08T07:20:45;97429.06;;;6.47;100.00
9439;BME280;5176;42.622;25.386;2024-03-08T07:23:13;97444.28;;;6.57;100.00
9439;BME280;5176;42.622;25.386;2024-03-08T07:26:00;97450.84;;;6.65;100.00
9439;BME280;5176;42.622;25.386;2024-03-08T07:28:28;97455.00;;;6.69;100.00
9439;BME280;5176;42.622;25.386;2024-03-08T07:30:58;97456.81;;;6.67;100.00
9439;BME280;5176;42.622;25.386;2024-03-08T07:33:42;97459.16;;;6.73;100.00
9439;BME280;5176;42.622;25.386;2024-03-08T07:36:10;97455.00;;;6.69;100.00
9439;BME280;5176;42.622;25.386;2024-03-08T07:38:37;97450.47;;;6.54;100.00
9439;BME280;5176;42.622;25.386;2024-03-08T07:41:04;97448.69;;;6.54;100.00
9439;BME280;5176;42.622;25.386;2024-03-08T07:43:32;97464.47;;;6.51;100.00
9439;BME280;5176;42.622;25.386;2024-03-08T07:46:01;97454.75;;;6.55;100.00
9439;BME280;5176;42.622;25.386;2024-03-08T07:48:28;97464.97;;;6.60;100.00
9439;BME280;5176;42.622;25.386;2024-03-08T07:50:56;97462.53;;;6.57;100.00
9439;BME280;5176;42.622;25.386;2024-03-08T07:53:23;97459.50;;;6.66;100.00
9439;BME280;5176;42.622;25.386;2024-03-08T07:55:51;97457.81;;;6.65;100.00
9439;BME280;5176;42.622;25.386;2024-03-08T07:58:18;97457.63;;;6.69;100.00
9439;BME280;5176;42.622;25.386;2024-03-08T08:00:45;97460.78;;;6.76;100.00
9439;BME280;5176;42.622;25.386;2024-03-08T08:03:14;97454.66;;;6.77;100.00
9439;BME280;5176;42.622;25.386;2024-03-08T08:05:42;97468.38;;;6.80;100.00
9439;BME280;5176;42.622;25.386;2024-03-08T08:08:09;97466.56;;;6.82;100.00
9439;BME280;5176;42.622;25.386;2024-03-08T08:10:37;97469.09;;;6.84;100.00
9439;BME280;5176;42.622;25.386;2024-03-08T08:13:04;97473.88;;;6.93;100.00
9439;BME280;5176;42.622;25.386;2024-03-08T08:15:32;97470.09;;;7.00;100.00
9439;BME280;5176;42.622;25.386;2024-03-08T08:18:00;97480.16;;;7.08;100.00
9439;BME280;5176;42.622;25.386;2024-03-08T08:20:30;97447.97;;;6.90;100.00
9439;BME280;5176;42.622;25.386;2024-03-08T08:34:59;97490.66;;;8.15;100.00
9439;BME280;5176;42.622;25.386;2024-03-08T08:37:26;97485.06;;;8.05;100.00
9439;BME280;5176;42.622;25.386;2024-03-08T08:39:54;97476.97;;;7.39;100.00
9439;BME280;5176;42.622;25.386;2024-03-08T08:42:22;97493.16;;;6.70;100.00
9439;BME280;5176;42.622;25.386;2024-03-08T08:44:50;97494.75;;;6.34;100.00
9439;BME280;5176;42.622;25.386;2024-03-08T08:47:18;97483.06;;;6.23;100.00
9439;BME280;5176;42.622;25.386;2024-03-08T08:49:45;97491.19;;;6.16;100.00
9439;BME280;5176;42.622;25.386;2024-03-08T08:52:18;97495.00;;;6.27;100.00
9439;BME280;5176;42.622;25.386;2024-03-08T08:54:45;97486.56;;;6.22;100.00
9439;BME280;5176;42.622;25.386;2024-03-08T08:57:12;97496.19;;;6.20;100.00
9439;BME280;5176;42.622;25.386;2024-03-08T08:59:40;97485.44;;;6.08;100.00
9439;BME280;5176;42.622;25.386;2024-03-08T09:02:07;97483.91;;;6.04;100.00
9439;BME280;5176;42.622;25.386;2024-03-08T09:04:35;97491.56;;;6.07;100.00
9439;BME280;5176;42.622;25.386;2024-03-08T09:07:02;97487.19;;;6.07;100.00
9439;BME280;5176;42.622;25.386;2024-03-08T09:09:33;97488.03;;;6.08;100.00
9439;BME280;5176;42.622;25.386;2024-03-08T09:12:00;97486.59;;;6.00;100.00
9439;BME280;5176;42.622;25.386;2024-03-08T09:14:28;97482.47;;;5.96;100.00
9439;BME280;5176;42.622;25.386;2024-03-08T09:16:55;97492.88;;;5.96;100.00
9439;BME280;5176;42.622;25.386;2024-03-08T09:19:22;97478.28;;;5.92;100.00
9439;BME280;5176;42.622;25.386;2024-03-08T09:21:51;97481.72;;;5.93;100.00
9439;BME280;5176;42.622;25.386;2024-03-08T09:24:18;97482.63;;;5.92;100.00
9439;BME280;5176;42.622;25.386;2024-03-08T09:26:47;97487.06;;;5.88;100.00
9439;BME280;5176;42.622;25.386;2024-03-08T09:29:15;97493.66;;;5.98;100.00
9439;BME280;5176;42.622;25.386;2024-03-08T09:31:42;97487.84;;;5.92;100.00
9439;BME280;5176;42.622;25.386;2024-03-08T09:34:12;97477.59;;;5.87;100.00
9439;BME280;5176;42.622;25.386;2024-03-08T09:36:39;97499.03;;;5.94;100.00
9439;BME280;5176;42.622;25.386;2024-03-08T09:39:07;97499.09;;;5.92;100.00
9439;BME280;5176;42.622;25.386;2024-03-08T09:41:34;97487.78;;;5.93;100.00
9439;BME280;5176;42.622;25.386;2024-03-08T09:44:04;97499.44;;;6.05;100.00
9439;BME280;5176;42.622;25.386;2024-03-08T09:46:31;97492.41;;;6.07;100.00
9439;BME280;5176;42.622;25.386;2024-03-08T09:48:58;97500.69;;;6.17;100.00
9439;BME280;5176;42.622;25.386;2024-03-08T09:51:28;97495.34;;;6.20;100.00
9439;BME280;5176;42.622;25.386;2024-03-08T09:53:56;97498.75;;;6.22;100.00
9439;BME280;5176;42.622;25.386;2024-03-08T09:56:25;97496.84;;;6.25;100.00
9439;BME280;5176;42.622;25.386;2024-03-08T09:58:53;97494.06;;;6.30;100.00
9439;BME280;5176;42.622;25.386;2024-03-08T10:01:42;97496.25;;;6.39;100.00
9439;BME280;5176;42.622;25.386;2024-03-08T10:04:08;97489.50;;;6.55;100.00
9439;BME280;5176;42.622;25.386;2024-03-08T10:06:36;97492.44;;;6.67;100.00
9439;BME280;5176;42.622;25.386;2024-03-08T10:09:03;97483.31;;;6.77;100.00
9439;BME280;5176;42.622;25.386;2024-03-08T10:11:31;97487.41;;;6.82;100.00
9439;BME280;5176;42.622;25.386;2024-03-08T10:13:59;97487.69;;;6.95;100.00
9439;BME280;5176;42.622;25.386;2024-03-08T10:16:27;97489.75;;;7.07;100.00
9439;BME280;5176;42.622;25.386;2024-03-08T10:18:57;97488.41;;;7.18;100.00
9439;BME280;5176;42.622;25.386;2024-03-08T10:21:26;97484.53;;;7.26;98.43
9439;BME280;5176;42.622;25.386;2024-03-08T10:23:54;97478.38;;;7.27;95.53
9439;BME280;5176;42.622;25.386;2024-03-08T10:26:23;97485.16;;;7.31;91.24
9439;BME280;5176;42.622;25.386;2024-03-08T10:28:51;97479.75;;;7.36;91.85
9439;BME280;5176;42.622;25.386;2024-03-08T10:31:19;97483.75;;;7.43;91.79
9439;BME280;5176;42.622;25.386;2024-03-08T10:33:47;97480.28;;;7.43;90.81
9439;BME280;5176;42.622;25.386;2024-03-08T10:36:16;97485.56;;;7.41;90.72
9439;BME280;5176;42.622;25.386;2024-03-08T10:38:45;97479.97;;;7.49;91.75
9439;BME280;5176;42.622;25.386;2024-03-08T10:41:14;97480.91;;;7.48;86.93
9439;BME280;5176;42.622;25.386;2024-03-08T10:44:10;97485.06;;;7.52;88.24
9439;BME280;5176;42.622;25.386;2024-03-08T10:46:48;97477.94;;;7.55;88.49
9439;BME280;5176;42.622;25.386;2024-03-08T10:49:25;97476.31;;;7.53;89.46
9439;BME280;5176;42.622;25.386;2024-03-08T10:51:54;97476.19;;;7.56;90.10
9439;BME280;5176;42.622;25.386;2024-03-08T10:54:25;97472.50;;;7.60;90.25
9439;BME280;5176;42.622;25.386;2024-03-08T10:56:53;97463.69;;;7.62;89.19
9439;BME280;5176;42.622;25.386;2024-03-08T10:59:23;97464.16;;;7.71;90.11
9439;BME280;5176;42.622;25.386;2024-03-08T11:01:53;97470.97;;;7.73;89.76
9439;BME280;5176;42.622;25.386;2024-03-08T11:04:20;97469.13;;;7.75;89.24
9439;BME280;5176;42.622;25.386;2024-03-08T11:06:50;97476.00;;;7.78;88.69
9439;BME280;5176;42.622;25.386;2024-03-08T11:09:30;97469.84;;;7.79;90.14
9439;BME280;5176;42.622;25.386;2024-03-08T11:12:20;97473.94;;;7.84;86.67
9439;BME280;5176;42.622;25.386;2024-03-08T11:14:49;97476.66;;;7.81;87.08
9439;BME280;5176;42.622;25.386;2024-03-08T11:17:20;97472.00;;;7.88;89.10
9439;BME280;5176;42.622;25.386;2024-03-08T11:19:48;97475.22;;;7.93;88.97
9439;BME280;5176;42.622;25.386;2024-03-08T11:22:22;97473.09;;;7.84;84.92
9439;BME280;5176;42.622;25.386;2024-03-08T11:24:58;97475.78;;;7.82;83.94
9439;BME280;5176;42.622;25.386;2024-03-08T11:27:29;97476.28;;;7.89;85.79
9439;BME280;5176;42.622;25.386;2024-03-08T11:30:01;97472.91;;;7.87;86.00
9439;BME280;5176;42.622;25.386;2024-03-08T11:32:36;97478.75;;;7.92;85.11
9439;BME280;5176;42.622;25.386;2024-03-08T11:35:06;97471.84;;;7.91;82.43
9439;BME280;5176;42.622;25.386;2024-03-08T11:37:34;97466.63;;;7.91;85.50
9439;BME280;5176;42.622;25.386;2024-03-08T11:40:12;97477.16;;;8.07;83.85
9439;BME280;5176;42.622;25.386;2024-03-08T11:42:44;97475.84;;;8.15;84.89
9439;BME280;5176;42.622;25.386;2024-03-08T11:45:14;97477.25;;;8.23;82.51
9439;BME280;5176;42.622;25.386;2024-03-08T11:47:43;97465.56;;;8.30;82.22
9439;BME280;5176;42.622;25.386;2024-03-08T11:50:12;97440.91;;;8.18;79.92
9439;BME280;5176;42.622;25.386;2024-03-08T11:52:40;97458.31;;;8.35;80.86
9439;BME280;5176;42.622;25.386;2024-03-08T11:55:11;97460.72;;;8.39;81.01
9439;BME280;5176;42.622;25.386;2024-03-08T11:57:39;97469.94;;;8.46;80.91
9439;BME280;5176;42.622;25.386;2024-03-08T12:00:15;97459.31;;;8.32;80.67
9439;BME280;5176;42.622;25.386;2024-03-08T12:03:01;97461.81;;;8.35;79.89
9439;BME280;5176;42.622;25.386;2024-03-08T12:05:29;97461.94;;;8.32;80.96
9439;BME280;5176;42.622;25.386;2024-03-08T12:07:59;97466.31;;;8.32;82.02
9439;BME280;5176;42.622;25.386;2024-03-08T12:10:28;97470.78;;;8.30;81.44
9439;BME280;5176;42.622;25.386;2024-03-08T12:12:58;97461.94;;;8.32;81.55
9439;BME280;5176;42.622;25.386;2024-03-08T12:15:33;97459.13;;;8.37;80.37
9439;BME280;5176;42.622;25.386;2024-03-08T12:18:00;97467.41;;;8.45;80.89
9439;BME280;5176;42.622;25.386;2024-03-08T12:20:30;97464.63;;;8.48;81.52
9439;BME280;5176;42.622;25.386;2024-03-08T12:22:58;97465.16;;;8.55;82.76
9439;BME280;5176;42.622;25.386;2024-03-08T12:25:32;97462.72;;;8.52;80.96
9439;BME280;5176;42.622;25.386;2024-03-08T12:28:07;97465.72;;;8.44;80.99
9439;BME280;5176;42.622;25.386;2024-03-08T12:30:46;97470.69;;;8.31;81.08
9439;BME280;5176;42.622;25.386;2024-03-08T12:33:14;97463.25;;;8.24;81.23
9439;BME280;5176;42.622;25.386;2024-03-08T12:35:50;97459.50;;;8.12;83.25
9439;BME280;5176;42.622;25.386;2024-03-08T12:38:20;97458.78;;;8.08;82.68
9439;BME280;5176;42.622;25.386;2024-03-08T12:40:55;97454.66;;;8.04;84.54
9439;BME280;5176;42.622;25.386;2024-03-08T12:43:24;97449.34;;;8.06;84.24
9439;BME280;5176;42.622;25.386;2024-03-08T12:45:51;97454.72;;;8.20;81.33
9439;BME280;5176;42.622;25.386;2024-03-08T12:48:20;97455.03;;;8.31;81.11
9439;BME280;5176;42.622;25.386;2024-03-08T12:50:48;97461.34;;;8.44;82.73
9439;BME280;5176;42.622;25.386;2024-03-08T12:53:17;97455.22;;;8.61;83.31
9439;BME280;5176;42.622;25.386;2024-03-08T12:55:44;97457.31;;;8.55;79.08
9439;BME280;5176;42.622;25.386;2024-03-08T12:58:13;97455.31;;;8.60;79.12
9439;BME280;5176;42.622;25.386;2024-03-08T13:00:42;97461.47;;;8.59;78.03
9439;BME280;5176;42.622;25.386;2024-03-08T13:03:09;97461.16;;;8.65;78.36
9439;BME280;5176;42.622;25.386;2024-03-08T13:05:37;97466.16;;;8.69;77.19
9439;BME280;5176;42.622;25.386;2024-03-08T13:08:06;97465.88;;;8.74;76.50
9439;BME280;5176;42.622;25.386;2024-03-08T13:10:38;97459.28;;;8.67;73.79
9439;BME280;5176;42.622;25.386;2024-03-08T13:13:06;97461.38;;;8.60;73.80
9439;BME280;5176;42.622;25.386;2024-03-08T13:15:37;97458.25;;;8.54;72.27
9439;BME280;5176;42.622;25.386;2024-03-08T13:18:04;97456.78;;;8.48;74.36
9439;BME280;5176;42.622;25.386;2024-03-08T13:20:34;97459.66;;;8.43;72.86
9439;BME280;5176;42.622;25.386;2024-03-08T13:23:03;97453.88;;;8.54;75.08
9439;BME280;5176;42.622;25.386;2024-03-08T13:25:31;97459.09;;;8.54;75.84
9439;BME280;5176;42.622;25.386;2024-03-08T13:27:58;97462.63;;;8.53;75.30
9439;BME280;5176;42.622;25.386;2024-03-08T13:30:26;97466.84;;;8.56;76.91
9439;BME280;5176;42.622;25.386;2024-03-08T13:32:55;97468.16;;;8.47;77.51